Time;durP1;ratioP1;P1;durP2;ratioP2;P2;SDS_P1;SDS_P2;PMS_P1;PMS_P2;Temp;Humidity;BMP_temperature;BMP_pressure;BME280_temperature;BME280_humidity;BME280_pressure;Samples;Min_cycle;Max_cycle;Signal;HPM_P1;HPM_P2
2023/03/24 00:00:47;;;;;;;;;;;24.30;99.90;;;;;;5095999;28;19916;-69
2023/03/24 00:03:16;;;;;;;;;;;24.40;99.90;;;;;;5100397;28;19912;-68
2023/03/24 00:05:43;;;;;;;;;;;24.50;99.90;;;;;;5097950;28;20045;-69
2023/03/24 00:08:10;;;;;;;;;;;24.70;99.90;;;;;;5098093;28;19904;-68
2023/03/24 00:10:37;;;;;;;;;;;24.80;99.90;;;;;;5079664;28;19947;-70
2023/03/24 00:13:04;;;;;;;;;;;24.80;99.90;;;;;;5099416;28;20451;-69
2023/03/24 00:15:32;;;;;;;;;;;24.60;99.90;;;;;;5099506;28;19920;-68
2023/03/24 00:17:59;;;;;;;;;;;24.60;99.90;;;;;;5097350;28;19950;-69
2023/03/24 00:20:27;;;;;;;;;;;24.50;99.90;;;;;;5100447;28;19915;-69
2023/03/24 00:22:57;;;;;;;;;;;24.50;99.90;;;;;;5079351;28;19919;-67
2023/03/24 00:25:28;;;;;;;;;;;24.60;99.90;;;;;;5079881;28;19908;-68
2023/03/24 00:27:56;;;;;;;;;;;24.70;99.90;;;;;;5077502;28;19938;-70
2023/03/24 00:30:23;;;;;;;;;;;24.80;99.90;;;;;;5099803;28;20018;-69
2023/03/24 00:32:51;;;;;;;;;;;25.10;99.90;;;;;;5089974;28;19930;-69
2023/03/24 00:35:18;;;;;;;;;;;25.30;99.90;;;;;;5099657;28;19916;-70
2023/03/24 00:37:44;;;;;;;;;;;25.40;99.90;;;;;;5082892;28;19918;-69
2023/03/24 00:40:16;;;;;;;;;;;25.40;99.90;;;;;;5091992;28;20291;-69
2023/03/24 00:42:45;;;;;;;;;;;25.60;99.90;;;;;;5099876;28;19912;-69
2023/03/24 00:45:21;;;;;;;;;;;25.80;99.90;;;;;;5100846;28;20010;-70
2023/03/24 00:47:56;;;;;;;;;;;25.90;99.90;;;;;;5098042;28;19930;-69
2023/03/24 00:50:25;;;;;;;;;;;26.00;99.90;;;;;;5100770;28;20359;-69
2023/03/24 00:52:52;;;;;;;;;;;26.20;99.90;;;;;;5098048;28;19914;-69
2023/03/24 00:55:20;;;;;;;;;;;26.30;99.90;;;;;;5100237;28;19907;-70
2023/03/24 00:57:50;;;;;;;;;;;26.30;99.90;;;;;;5097873;28;19908;-71
2023/03/24 01:00:22;;;;;;;;;;;26.30;99.90;;;;;;5100399;28;19939;-69
2023/03/24 01:02:53;;;;;;;;;;;26.40;99.90;;;;;;5096935;28;20606;-69
2023/03/24 01:05:21;;;;;;;;;;;26.30;99.90;;;;;;5099177;28;19908;-71
2023/03/24 01:07:50;;;;;;;;;;;26.10;99.90;;;;;;5097985;28;20640;-69
2023/03/24 01:10:20;;;;;;;;;;;26.10;99.90;;;;;;5099376;28;20388;-68
2023/03/24 01:12:47;;;;;;;;;;;26.10;99.90;;;;;;5098818;28;19912;-69
2023/03/24 01:15:16;;;;;;;;;;;26.00;99.90;;;;;;5098193;28;20348;-69
2023/03/24 01:17:42;;;;;;;;;;;25.90;99.90;;;;;;5100256;28;19912;-68
2023/03/24 01:20:10;;;;;;;;;;;25.90;99.90;;;;;;5097649;28;19916;-69
2023/03/24 01:22:38;;;;;;;;;;;26.00;99.90;;;;;;5099939;28;19952;-69
2023/03/24 01:25:11;;;;;;;;;;;26.30;99.90;;;;;;5097557;28;19964;-69
2023/03/24 01:27:38;;;;;;;;;;;26.40;99.90;;;;;;5099686;28;19908;-70
2023/03/24 01:30:05;;;;;;;;;;;26.50;99.90;;;;;;5097592;28;19907;-68
2023/03/24 01:32:32;;;;;;;;;;;26.50;99.90;;;;;;5100001;28;20097;-69
2023/03/24 01:34:59;;;;;;;;;;;26.60;99.90;;;;;;5097353;28;19930;-69
2023/03/24 01:37:26;;;;;;;;;;;26.60;99.90;;;;;;5099882;28;20074;-71
2023/03/24 01:39:52;;;;;;;;;;;26.40;99.90;;;;;;5098351;28;20525;-70
2023/03/24 01:42:21;;;;;;;;;;;26.40;99.90;;;;;;5100902;28;20332;-68
2023/03/24 01:44:48;;;;;;;;;;;26.40;99.90;;;;;;5103363;28;19908;-70
2023/03/24 01:47:16;;;;;;;;;;;26.60;99.90;;;;;;5101750;28;20045;-69
2023/03/24 01:49:45;;;;;;;;;;;26.70;99.90;;;;;;5103335;28;20106;-69
2023/03/24 01:52:15;;;;;;;;;;;26.70;99.90;;;;;;5101135;28;20075;-70
2023/03/24 01:54:43;;;;;;;;;;;26.70;99.90;;;;;;5103294;28;19908;-69
2023/03/24 01:57:28;;;;;;;;;;;26.80;99.90;;;;;;5100815;28;20323;-69
2023/03/24 01:59:56;;;;;;;;;;;26.80;99.90;;;;;;5102354;28;19926;-70
2023/03/24 02:02:23;;;;;;;;;;;26.90;99.90;;;;;;5103190;28;19908;-69
2023/03/24 02:04:53;;;;;;;;;;;27.00;99.90;;;;;;5103419;28;20348;-69
2023/03/24 02:07:27;;;;;;;;;;;26.90;99.90;;;;;;5102675;28;20175;-69
2023/03/24 02:09:54;;;;;;;;;;;27.00;99.90;;;;;;5102785;28;20268;-70
2023/03/24 02:12:21;;;;;;;;;;;27.10;99.90;;;;;;5102023;28;19961;-69
2023/03/24 02:14:47;;;;;;;;;;;26.90;99.90;;;;;;5103132;28;19907;-70
2023/03/24 02:17:23;;;;;;;;;;;27.10;99.90;;;;;;5100577;28;20348;-67
2023/03/24 02:20:06;;;;;;;;;;;27.30;99.90;;;;;;5102695;28;19968;-69
2023/03/24 02:22:34;;;;;;;;;;;27.70;99.90;;;;;;5103247;28;19914;-68
2023/03/24 02:25:20;;;;;;;;;;;27.90;99.90;;;;;;5100791;28;19907;-68
2023/03/24 02:27:59;;;;;;;;;;;28.10;99.90;;;;;;5102697;28;19947;-68
2023/03/24 02:30:43;;;;;;;;;;;28.20;99.90;;;;;;5101881;28;19911;-68
2023/03/24 02:33:25;;;;;;;;;;;28.40;99.90;;;;;;5100772;28;20352;-68
2023/03/24 02:36:06;;;;;;;;;;;28.50;99.90;;;;;;5102569;28;19908;-69
2023/03/24 02:38:48;;;;;;;;;;;28.60;99.90;;;;;;5103092;28;19924;-68
2023/03/24 02:41:37;;;;;;;;;;;28.50;99.90;;;;;;5100433;28;20356;-67
2023/03/24 02:44:30;;;;;;;;;;;28.60;99.90;;;;;;5092382;28;19908;-70
2023/03/24 02:47:02;;;;;;;;;;;28.50;99.90;;;;;;5078798;28;20268;-68
2023/03/24 02:49:47;;;;;;;;;;;28.80;99.90;;;;;;5101911;28;19908;-70
2023/03/24 02:52:20;;;;;;;;;;;29.30;99.90;;;;;;5100017;28;19907;-70
2023/03/24 02:54:59;;;;;;;;;;;29.80;99.20;;;;;;5102885;28;19908;-70
2023/03/24 02:57:44;;;;;;;;;;;30.10;98.80;;;;;;5100274;28;20239;-67
2023/03/24 03:00:18;;;;;;;;;;;30.80;97.90;;;;;;5099499;28;19996;-68
2023/03/24 03:02:47;;;;;;;;;;;31.70;97.20;;;;;;5102330;28;19954;-69
2023/03/24 03:05:20;;;;;;;;;;;32.50;94.90;;;;;;5099685;28;19969;-69
2023/03/24 03:07:49;;;;;;;;;;;33.30;93.30;;;;;;5102571;28;20022;-69
2023/03/24 03:10:16;;;;;;;;;;;33.90;92.30;;;;;;5099779;28;19908;-69
2023/03/24 03:12:45;;;;;;;;;;;34.10;90.90;;;;;;5101873;28;20466;-69
2023/03/24 03:15:15;;;;;;;;;;;34.60;90.80;;;;;;5099541;28;19914;-70
2023/03/24 03:17:47;;;;;;;;;;;34.30;90.10;;;;;;5101995;28;19991;-69
2023/03/24 03:20:18;;;;;;;;;;;33.30;91.40;;;;;;5099364;28;19916;-69
2023/03/24 03:22:48;;;;;;;;;;;32.10;92.60;;;;;;5101941;28;19908;-68
2023/03/24 03:25:16;;;;;;;;;;;31.90;93.70;;;;;;5099260;28;19920;-69
2023/03/24 03:27:45;;;;;;;;;;;32.30;92.30;;;;;;5101537;28;19930;-71
2023/03/24 03:30:17;;;;;;;;;;;31.80;92.70;;;;;;5099334;28;20006;-70
2023/03/24 03:32:53;;;;;;;;;;;30.90;94.00;;;;;;5101857;28;19908;-69
2023/03/24 03:35:23;;;;;;;;;;;30.10;95.30;;;;;;5099268;28;19908;-68
2023/03/24 03:38:05;;;;;;;;;;;29.20;96.50;;;;;;5101803;28;19912;-68
2023/03/24 03:40:49;;;;;;;;;;;28.50;97.50;;;;;;5099413;28;20345;-68
2023/03/24 03:43:16;;;;;;;;;;;28.30;98.50;;;;;;5098626;28;19915;-69
2023/03/24 03:45:43;;;;;;;;;;;28.40;98.50;;;;;;5101584;28;19968;-69
2023/03/24 03:48:10;;;;;;;;;;;28.40;97.70;;;;;;5100857;28;19908;-68
2023/03/24 03:50:37;;;;;;;;;;;28.10;97.90;;;;;;5099879;28;19964;-69
2023/03/24 03:53:05;;;;;;;;;;;28.00;98.10;;;;;;5100888;28;19915;-68
2023/03/24 03:55:33;;;;;;;;;;;28.90;97.90;;;;;;5099144;28;20593;-69
2023/03/24 03:58:00;;;;;;;;;;;30.80;95.80;;;;;;5101326;28;20595;-71
2023/03/24 04:00:27;;;;;;;;;;;32.90;92.00;;;;;;5099014;28;19958;-69
2023/03/24 04:02:56;;;;;;;;;;;34.10;91.00;;;;;;5101523;28;19908;-69
2023/03/24 04:05:32;;;;;;;;;;;33.40;90.40;;;;;;5097982;28;19915;-69
2023/03/24 04:08:05;;;;;;;;;;;32.10;92.00;;;;;;5101034;28;19916;-69
2023/03/24 04:10:43;;;;;;;;;;;30.80;93.60;;;;;;5098032;28;19908;-69
2023/03/24 04:13:19;;;;;;;;;;;30.10;94.40;;;;;;5100909;28;19930;-68
2023/03/24 04:15:53;;;;;;;;;;;29.70;95.30;;;;;;5101289;28;19911;-68
2023/03/24 04:18:20;;;;;;;;;;;29.60;94.80;;;;;;5098594;28;19952;-67
2023/03/24 04:20:57;;;;;;;;;;;29.00;95.40;;;;;;5100342;28;19984;-68
2023/03/24 04:23:44;;;;;;;;;;;28.50;96.50;;;;;;5096936;28;19918;-70
2023/03/24 04:26:24;;;;;;;;;;;28.10;97.10;;;;;;5099322;28;20093;-69
2023/03/24 04:29:07;;;;;;;;;;;27.60;98.20;;;;;;5100079;28;19915;-69
2023/03/24 04:31:42;;;;;;;;;;;27.40;98.60;;;;;;5097784;28;19931;-69
2023/03/24 04:34:28;;;;;;;;;;;27.20;98.70;;;;;;5100064;28;20005;-70
2023/03/24 04:37:01;;;;;;;;;;;27.10;99.00;;;;;;5100446;28;19911;-69
2023/03/24 04:39:28;;;;;;;;;;;27.00;99.00;;;;;;5097612;28;19927;-68
2023/03/24 04:42:00;;;;;;;;;;;27.00;99.00;;;;;;5100385;28;20276;-69
2023/03/24 04:44:31;;;;;;;;;;;27.60;99.50;;;;;;5097875;28;20399;-67
2023/03/24 04:47:00;;;;;;;;;;;28.30;97.60;;;;;;5100277;28;20003;-68
2023/03/24 04:49:26;;;;;;;;;;;28.50;97.30;;;;;;5080100;28;19947;-70
2023/03/24 04:51:54;;;;;;;;;;;28.60;97.20;;;;;;5100569;28;19915;-68
2023/03/24 04:54:22;;;;;;;;;;;28.60;96.20;;;;;;5100275;28;20376;-69
2023/03/24 04:56:52;;;;;;;;;;;28.40;96.60;;;;;;5099893;28;19914;-68
2023/03/24 04:59:19;;;;;;;;;;;28.20;96.50;;;;;;5100498;28;19916;-69
2023/03/24 05:01:48;;;;;;;;;;;27.80;97.10;;;;;;5098443;28;19919;-69
2023/03/24 05:04:15;;;;;;;;;;;27.40;97.70;;;;;;5099799;28;19985;-69
2023/03/24 05:06:42;;;;;;;;;;;27.20;98.10;;;;;;5097677;28;19912;-71
2023/03/24 05:09:09;;;;;;;;;;;27.00;98.50;;;;;;5100196;28;19908;-70
2023/03/24 05:11:36;;;;;;;;;;;26.80;98.70;;;;;;5097764;28;19915;-69
2023/03/24 05:14:03;;;;;;;;;;;26.70;99.10;;;;;;5100385;28;20096;-69
2023/03/24 05:16:29;;;;;;;;;;;26.70;99.30;;;;;;5099898;28;19955;-68
2023/03/24 05:18:56;;;;;;;;;;;26.90;98.90;;;;;;5104710;28;19933;-67
2023/03/24 05:21:23;;;;;;;;;;;28.20;97.20;;;;;;5104071;28;19965;-69
2023/03/24 05:23:49;;;;;;;;;;;30.30;95.00;;;;;;5102399;28;19907;-69
2023/03/24 05:26:16;;;;;;;;;;;32.70;91.70;;;;;;5104607;28;19908;-69
2023/03/24 05:28:42;;;;;;;;;;;34.50;89.10;;;;;;5101687;28;19914;-69
2023/03/24 05:31:09;;;;;;;;;;;35.90;86.20;;;;;;5104480;28;19954;-69
2023/03/24 05:33:36;;;;;;;;;;;37.50;80.80;;;;;;5083059;28;19918;-69
2023/03/24 05:36:02;;;;;;;;;;;37.20;78.40;;;;;;5104478;28;19952;-68
2023/03/24 05:38:29;;;;;;;;;;;36.80;80.10;;;;;;5102755;28;19980;-68
2023/03/24 05:40:57;;;;;;;;;;;36.90;78.60;;;;;;5103587;28;19922;-69
2023/03/24 05:43:24;;;;;;;;;;;37.50;77.30;;;;;;5100992;28;19916;-68
2023/03/24 05:45:50;;;;;;;;;;;37.00;80.30;;;;;;5081572;28;19908;-69
2023/03/24 05:48:17;;;;;;;;;;;37.10;76.90;;;;;;5103397;28;19964;-69
2023/03/24 05:50:44;;;;;;;;;;;37.60;76.00;;;;;;5100323;27;19919;-69
2023/03/24 05:53:11;;;;;;;;;;;37.80;74.90;;;;;;5088592;28;19908;-67
2023/03/24 05:55:38;;;;;;;;;;;37.40;75.60;;;;;;5088269;27;20226;-69
2023/03/24 05:58:05;;;;;;;;;;;38.10;75.00;;;;;;5102960;28;19908;-69
2023/03/24 06:00:32;;;;;;;;;;;37.90;73.30;;;;;;5102020;28;20008;-71
2023/03/24 06:02:59;;;;;;;;;;;38.10;73.60;;;;;;5096332;28;19908;-68
2023/03/24 06:05:26;;;;;;;;;;;38.30;72.40;;;;;;5088299;27;20006;-69
2023/03/24 06:07:57;;;;;;;;;;;38.30;71.80;;;;;;5100403;28;19908;-69
2023/03/24 06:10:28;;;;;;;;;;;38.30;71.30;;;;;;5101275;28;19916;-69
2023/03/24 06:12:55;;;;;;;;;;;38.10;71.40;;;;;;5094265;28;19966;-68
2023/03/24 06:15:23;;;;;;;;;;;37.80;71.80;;;;;;5087140;27;19964;-70
2023/03/24 06:17:53;;;;;;;;;;;37.50;71.30;;;;;;5100324;28;20339;-71
2023/03/24 06:20:20;;;;;;;;;;;37.30;71.80;;;;;;5101123;28;19919;-68
2023/03/24 06:22:47;;;;;;;;;;;37.00;73.00;;;;;;5095986;28;19912;-68
2023/03/24 06:25:15;;;;;;;;;;;37.00;73.00;;;;;;5085223;28;19923;-67
2023/03/24 06:27:44;;;;;;;;;;;37.00;71.10;;;;;;5100636;28;19957;-70
2023/03/24 06:30:12;;;;;;;;;;;36.90;72.80;;;;;;5097392;27;19908;-69
2023/03/24 06:32:39;;;;;;;;;;;37.30;73.00;;;;;;5098794;28;20402;-68
2023/03/24 06:35:06;;;;;;;;;;;37.30;72.10;;;;;;5080991;28;19970;-68
2023/03/24 06:37:32;;;;;;;;;;;37.50;72.10;;;;;;5101813;28;19914;-69
2023/03/24 06:40:00;;;;;;;;;;;37.50;71.10;;;;;;5100302;28;21665;-70
2023/03/24 06:42:27;;;;;;;;;;;37.10;71.10;;;;;;5081821;28;19972;-69
2023/03/24 06:44:53;;;;;;;;;;;37.20;71.10;;;;;;5063231;28;19909;-68
2023/03/24 06:47:20;;;;;;;;;;;37.40;70.60;;;;;;5099917;28;19939;-69
2023/03/24 06:49:46;;;;;;;;;;;37.10;70.40;;;;;;5100417;28;20348;-69
2023/03/24 06:52:13;;;;;;;;;;;36.10;71.50;;;;;;5097963;27;19911;-67
2023/03/24 06:54:40;;;;;;;;;;;35.00;74.20;;;;;;5081551;28;19908;-68
2023/03/24 06:57:06;;;;;;;;;;;34.30;75.60;;;;;;5096236;28;19912;-69
2023/03/24 06:59:33;;;;;;;;;;;33.00;77.20;;;;;;5101615;28;20721;-69
2023/03/24 07:02:01;;;;;;;;;;;32.00;79.30;;;;;;5097969;27;19912;-70
2023/03/24 07:04:35;;;;;;;;;;;31.20;81.20;;;;;;5099499;28;19907;-67
2023/03/24 07:07:02;;;;;;;;;;;30.50;83.00;;;;;;5102035;28;20360;-68
2023/03/24 07:09:29;;;;;;;;;;;29.60;85.80;;;;;;5100062;28;19908;-70
2023/03/24 07:11:55;;;;;;;;;;;28.60;89.00;;;;;;5101871;28;19965;-68
2023/03/24 07:14:25;;;;;;;;;;;28.00;90.70;;;;;;5099962;28;19908;-68
2023/03/24 07:16:52;;;;;;;;;;;27.60;91.60;;;;;;5101248;28;19912;-68
2023/03/24 07:19:19;;;;;;;;;;;27.40;92.00;;;;;;5099732;28;19919;-70
2023/03/24 07:21:48;;;;;;;;;;;27.10;92.50;;;;;;5101817;28;20033;-68
2023/03/24 07:24:16;;;;;;;;;;;26.90;93.00;;;;;;5082891;28;19920;-70
2023/03/24 07:26:43;;;;;;;;;;;26.60;93.70;;;;;;5100798;28;19961;-68
2023/03/24 07:29:10;;;;;;;;;;;26.50;94.20;;;;;;5100298;28;20273;-68
2023/03/24 07:31:38;;;;;;;;;;;26.50;94.90;;;;;;5099204;28;19908;-70
2023/03/24 07:34:05;;;;;;;;;;;26.30;95.10;;;;;;5101234;28;19908;-68
2023/03/24 07:36:31;;;;;;;;;;;26.10;95.60;;;;;;5099534;28;19912;-68
2023/03/24 07:38:58;;;;;;;;;;;26.00;96.00;;;;;;5100372;28;20372;-68
2023/03/24 07:41:26;;;;;;;;;;;25.80;96.40;;;;;;5098675;28;19914;-70
2023/03/24 07:43:53;;;;;;;;;;;25.60;97.10;;;;;;5100115;28;19907;-68
2023/03/24 07:46:19;;;;;;;;;;;25.30;97.50;;;;;;5101389;28;20326;-68
2023/03/24 07:48:46;;;;;;;;;;;25.20;98.20;;;;;;5098985;28;19912;-68
2023/03/24 07:51:13;;;;;;;;;;;25.10;99.10;;;;;;5100770;28;19908;-68
2023/03/24 07:53:39;;;;;;;;;;;24.90;99.10;;;;;;5099147;28;20280;-69
2023/03/24 07:56:06;;;;;;;;;;;24.80;99.60;;;;;;5101066;28;19919;-69
2023/03/24 07:58:33;;;;;;;;;;;24.70;99.80;;;;;;5101842;28;19986;-69
2023/03/24 08:00:59;;;;;;;;;;;24.60;99.90;;;;;;5099048;28;19908;-68
2023/03/24 08:03:26;;;;;;;;;;;24.50;99.90;;;;;;5100712;28;20074;-68
2023/03/24 08:05:54;;;;;;;;;;;24.40;99.90;;;;;;5098434;28;20382;-69
2023/03/24 08:08:20;;;;;;;;;;;24.40;99.90;;;;;;5100924;28;19908;-68
2023/03/24 08:10:49;;;;;;;;;;;24.30;99.90;;;;;;5099411;28;19915;-68
2023/03/24 08:13:15;;;;;;;;;;;24.20;99.90;;;;;;5099738;28;20159;-70
2023/03/24 08:15:42;;;;;;;;;;;24.10;99.90;;;;;;5099488;28;19961;-69
2023/03/24 08:18:09;;;;;;;;;;;24.10;99.90;;;;;;5099176;28;20384;-69
2023/03/24 08:20:35;;;;;;;;;;;23.90;99.90;;;;;;5101011;28;20416;-68
2023/03/24 08:23:03;;;;;;;;;;;23.80;99.90;;;;;;5098339;28;20142;-68
2023/03/24 08:25:30;;;;;;;;;;;23.80;99.90;;;;;;5082333;28;19979;-68
2023/03/24 08:27:57;;;;;;;;;;;23.80;99.90;;;;;;5080449;28;20280;-69
2023/03/24 08:30:24;;;;;;;;;;;23.70;99.90;;;;;;5100574;28;20382;-70
2023/03/24 08:32:53;;;;;;;;;;;23.70;99.90;;;;;;5098998;28;20080;-67
2023/03/24 08:35:22;;;;;;;;;;;23.70;99.90;;;;;;5099415;28;19908;-68
2023/03/24 08:37:48;;;;;;;;;;;23.60;99.90;;;;;;5099042;28;19980;-70
2023/03/24 08:40:18;;;;;;;;;;;23.60;99.90;;;;;;5099509;28;19920;-69
2023/03/24 08:42:47;;;;;;;;;;;23.50;99.90;;;;;;5099470;28;19915;-68
2023/03/24 08:45:14;;;;;;;;;;;23.40;99.90;;;;;;5099693;28;19915;-70
2023/03/24 08:47:41;;;;;;;;;;;23.40;99.90;;;;;;5099957;28;19933;-68
2023/03/24 08:50:08;;;;;;;;;;;23.40;99.90;;;;;;5098394;28;19912;-67
2023/03/24 08:52:35;;;;;;;;;;;23.40;99.90;;;;;;5100161;28;20197;-67
2023/03/24 08:55:02;;;;;;;;;;;23.40;99.90;;;;;;5098456;28;20162;-67
2023/03/24 08:57:29;;;;;;;;;;;23.30;99.90;;;;;;5100111;28;20356;-69
2023/03/24 08:59:56;;;;;;;;;;;23.30;99.90;;;;;;5098545;28;19916;-70
2023/03/24 09:02:23;;;;;;;;;;;23.20;99.90;;;;;;5099242;28;19908;-70
2023/03/24 09:04:52;;;;;;;;;;;23.20;99.90;;;;;;5081118;28;20364;-70
2023/03/24 09:07:19;;;;;;;;;;;23.20;99.90;;;;;;5099183;28;20130;-70
2023/03/24 09:09:46;;;;;;;;;;;23.20;99.90;;;;;;5100249;28;19934;-69
2023/03/24 09:12:13;;;;;;;;;;;23.20;99.90;;;;;;5098356;28;20063;-69
2023/03/24 09:14:39;;;;;;;;;;;23.10;99.90;;;;;;5100363;28;19957;-68
2023/03/24 09:17:06;;;;;;;;;;;23.10;99.90;;;;;;5097915;28;19911;-68
2023/03/24 09:19:33;;;;;;;;;;;23.00;99.90;;;;;;5099895;28;19923;-67
2023/03/24 09:21:59;;;;;;;;;;;23.00;99.90;;;;;;5080331;28;19994;-67
2023/03/24 09:24:26;;;;;;;;;;;23.00;99.90;;;;;;5099101;28;20387;-67
2023/03/24 09:26:52;;;;;;;;;;;23.00;99.90;;;;;;5098991;28;19997;-67
2023/03/24 09:29:19;;;;;;;;;;;23.00;99.90;;;;;;5099003;28;19908;-69
2023/03/24 09:31:46;;;;;;;;;;;22.90;99.90;;;;;;5100346;28;20125;-69
2023/03/24 09:34:13;;;;;;;;;;;22.80;99.90;;;;;;5097419;28;20109;-68
2023/03/24 09:36:39;;;;;;;;;;;22.90;99.90;;;;;;5099795;28;20423;-68
2023/03/24 09:39:06;;;;;;;;;;;22.90;99.90;;;;;;5097946;28;19924;-69
2023/03/24 09:41:32;;;;;;;;;;;22.80;99.90;;;;;;5099055;28;19915;-68
2023/03/24 09:44:11;;;;;;;;;;;22.80;99.90;;;;;;5100026;28;20189;-69
2023/03/24 09:46:43;;;;;;;;;;;22.80;99.90;;;;;;5099436;28;19968;-69
2023/03/24 09:49:16;;;;;;;;;;;22.80;99.90;;;;;;5098917;28;20354;-69
2023/03/24 09:51:43;;;;;;;;;;;22.70;99.90;;;;;;5099898;28;19911;-68
2023/03/24 09:54:19;;;;;;;;;;;22.70;99.90;;;;;;5099376;28;19908;-68
2023/03/24 09:56:46;;;;;;;;;;;22.70;99.90;;;;;;5099256;28;19908;-68
2023/03/24 09:59:20;;;;;;;;;;;22.70;99.90;;;;;;5098674;28;19923;-69
2023/03/24 10:01:48;;;;;;;;;;;22.60;99.90;;;;;;5099343;28;19947;-68
2023/03/24 10:04:22;;;;;;;;;;;22.60;99.90;;;;;;5101335;28;19911;-70
2023/03/24 10:06:52;;;;;;;;;;;22.60;99.90;;;;;;5103247;28;19930;-68
2023/03/24 10:09:18;;;;;;;;;;;22.60;99.90;;;;;;5082040;28;19952;-68
2023/03/24 10:11:49;;;;;;;;;;;22.60;99.90;;;;;;5103170;28;19931;-69
2023/03/24 10:14:25;;;;;;;;;;;22.60;99.90;;;;;;5101869;28;19995;-69
2023/03/24 10:16:59;;;;;;;;;;;22.60;99.90;;;;;;5084418;28;20337;-68
2023/03/24 10:19:39;;;;;;;;;;;22.60;99.90;;;;;;5082104;28;19920;-69
2023/03/24 10:22:29;;;;;;;;;;;22.50;99.90;;;;;;5103245;28;19918;-68
2023/03/24 10:24:55;;;;;;;;;;;22.50;99.90;;;;;;5055754;28;19922;-68
2023/03/24 10:27:22;;;;;;;;;;;22.50;99.90;;;;;;5100184;28;19982;-68
2023/03/24 10:29:50;;;;;;;;;;;22.50;99.90;;;;;;5102371;28;20144;-69
2023/03/24 10:32:25;;;;;;;;;;;22.50;99.90;;;;;;5101910;28;19907;-70
2023/03/24 10:34:57;;;;;;;;;;;22.50;99.90;;;;;;5102322;28;20360;-69
2023/03/24 10:37:24;;;;;;;;;;;22.40;99.90;;;;;;5099840;28;19908;-69
2023/03/24 10:39:50;;;;;;;;;;;22.40;99.90;;;;;;5102391;28;19916;-69
2023/03/24 10:42:20;;;;;;;;;;;22.40;99.90;;;;;;5102166;28;20380;-69
2023/03/24 10:44:48;;;;;;;;;;;22.40;99.90;;;;;;5102079;28;19915;-70
2023/03/24 10:47:17;;;;;;;;;;;22.40;99.90;;;;;;5103535;28;19958;-68
2023/03/24 10:50:00;;;;;;;;;;;22.40;99.90;;;;;;5101415;28;19908;-67
2023/03/24 10:52:28;;;;;;;;;;;22.40;99.90;;;;;;5100037;28;19915;-67
2023/03/24 10:55:02;;;;;;;;;;;22.30;99.90;;;;;;5101932;28;19957;-69
2023/03/24 10:57:29;;;;;;;;;;;22.30;99.90;;;;;;5099498;28;19908;-68
2023/03/24 11:00:13;;;;;;;;;;;22.30;99.90;;;;;;5101928;28;19920;-69
2023/03/24 11:02:41;;;;;;;;;;;22.30;99.90;;;;;;5099375;28;20140;-69
2023/03/24 11:05:16;;;;;;;;;;;22.30;99.90;;;;;;5102531;28;20280;-68
2023/03/24 11:07:45;;;;;;;;;;;22.20;99.90;;;;;;5098618;28;20335;-68
2023/03/24 11:10:15;;;;;;;;;;;22.20;99.90;;;;;;5102081;28;19960;-68
2023/03/24 11:12:43;;;;;;;;;;;22.20;99.90;;;;;;5098660;28;19918;-70
2023/03/24 11:15:14;;;;;;;;;;;22.20;99.90;;;;;;5083637;28;20329;-69
2023/03/24 11:17:41;;;;;;;;;;;22.10;99.90;;;;;;5098877;28;20379;-69
2023/03/24 11:20:18;;;;;;;;;;;22.20;99.90;;;;;;5102159;28;19915;-69
2023/03/24 11:22:55;;;;;;;;;;;22.20;99.90;;;;;;5098436;28;20085;-69
2023/03/24 11:25:25;;;;;;;;;;;22.10;99.90;;;;;;5102028;28;20320;-71
2023/03/24 11:27:56;;;;;;;;;;;22.20;99.90;;;;;;5100364;28;19907;-70
2023/03/24 11:30:22;;;;;;;;;;;22.20;99.90;;;;;;5101622;28;19955;-70
2023/03/24 11:32:49;;;;;;;;;;;22.20;99.90;;;;;;5099501;28;19999;-69
2023/03/24 11:35:17;;;;;;;;;;;22.20;99.90;;;;;;5101898;28;19915;-69
2023/03/24 11:37:45;;;;;;;;;;;22.20;99.90;;;;;;5098584;28;20018;-68
2023/03/24 11:40:11;;;;;;;;;;;22.20;99.90;;;;;;5102153;28;20265;-68
2023/03/24 11:42:51;;;;;;;;;;;22.20;99.90;;;;;;5099009;28;19908;-68
2023/03/24 11:45:38;;;;;;;;;;;22.20;99.90;;;;;;5101668;28;20383;-68
2023/03/24 11:48:21;;;;;;;;;;;22.20;99.90;;;;;;5101129;28;19961;-68
2023/03/24 11:50:48;;;;;;;;;;;22.20;99.90;;;;;;5098307;28;20193;-68
2023/03/24 11:53:26;;;;;;;;;;;22.20;99.90;;;;;;5101798;28;19914;-67
2023/03/24 11:56:03;;;;;;;;;;;22.20;99.90;;;;;;5098952;28;20597;-69
2023/03/24 11:58:43;;;;;;;;;;;22.20;99.90;;;;;;5100527;28;19914;-70
2023/03/24 12:01:14;;;;;;;;;;;22.20;99.90;;;;;;5101187;28;19916;-68
2023/03/24 12:03:41;;;;;;;;;;;22.30;99.90;;;;;;5098608;28;19911;-68
2023/03/24 12:06:26;;;;;;;;;;;22.20;99.90;;;;;;5100845;28;19953;-68
2023/03/24 12:08:56;;;;;;;;;;;22.20;99.90;;;;;;5098516;28;19915;-68
2023/03/24 12:11:32;;;;;;;;;;;22.20;99.90;;;;;;5100905;28;20079;-68
2023/03/24 12:14:01;;;;;;;;;;;22.20;99.90;;;;;;5099638;28;19912;-69
2023/03/24 12:16:39;;;;;;;;;;;22.20;99.90;;;;;;5101250;28;19937;-68
2023/03/24 12:19:13;;;;;;;;;;;22.10;99.90;;;;;;5100408;28;20076;-70
2023/03/24 12:21:47;;;;;;;;;;;22.10;99.90;;;;;;5097895;28;19923;-68
2023/03/24 12:24:48;;;;;;;;;;;22.00;99.90;;;;;;5100924;28;19914;-67
2023/03/24 12:27:38;;;;;;;;;;;22.00;99.90;;;;;;4997789;28;20044;-70
2023/03/24 12:30:10;;;;;;;;;;;22.10;99.90;;;;;;5087710;28;19915;-69
2023/03/24 12:32:41;;;;;;;;;;;22.10;99.90;;;;;;5099230;28;20332;-70
2023/03/24 12:35:23;;;;;;;;;;;22.20;99.90;;;;;;5100221;28;19907;-71
2023/03/24 12:37:55;;;;;;;;;;;22.20;99.90;;;;;;5097732;28;19968;-68
2023/03/24 12:40:40;;;;;;;;;;;22.10;99.90;;;;;;5100864;28;19923;-68
2023/03/24 12:43:15;;;;;;;;;;;22.20;99.90;;;;;;5100555;28;19908;-68
2023/03/24 12:45:48;;;;;;;;;;;22.20;99.90;;;;;;5098335;28;20003;-68
2023/03/24 12:48:23;;;;;;;;;;;22.30;99.90;;;;;;5100107;28;19908;-68
2023/03/24 12:50:56;;;;;;;;;;;22.30;99.90;;;;;;5097749;28;19915;-69
2023/03/24 12:53:45;;;;;;;;;;;22.30;99.90;;;;;;5100911;28;19908;-68
2023/03/24 12:56:20;;;;;;;;;;;22.30;99.90;;;;;;5081491;28;19912;-67
2023/03/24 12:58:53;;;;;;;;;;;22.30;99.90;;;;;;5097493;28;19908;-68
2023/03/24 13:01:35;;;;;;;;;;;22.30;99.90;;;;;;5100834;28;19908;-68
2023/03/24 13:04:04;;;;;;;;;;;22.20;99.90;;;;;;5096532;28;20117;-69
2023/03/24 13:06:41;;;;;;;;;;;22.30;99.90;;;;;;5100097;28;20041;-68
2023/03/24 13:09:17;;;;;;;;;;;22.30;99.90;;;;;;5098932;28;20276;-68
2023/03/24 13:11:51;;;;;;;;;;;22.40;99.90;;;;;;5098265;28;19908;-69
2023/03/24 13:14:22;;;;;;;;;;;22.40;99.90;;;;;;5099952;28;19908;-69
2023/03/24 13:16:49;;;;;;;;;;;22.40;99.90;;;;;;5097123;28;19918;-69
2023/03/24 13:19:18;;;;;;;;;;;22.40;99.90;;;;;;5099618;28;20170;-68
2023/03/24 13:21:45;;;;;;;;;;;22.40;99.90;;;;;;5098692;28;19915;-69
2023/03/24 13:24:13;;;;;;;;;;;22.40;99.90;;;;;;5099363;28;19955;-68
2023/03/24 13:26:39;;;;;;;;;;;22.40;99.90;;;;;;5100531;28;19939;-69
2023/03/24 13:29:24;;;;;;;;;;;22.40;99.90;;;;;;5097207;28;19914;-69
2023/03/24 13:32:04;;;;;;;;;;;22.40;99.90;;;;;;5097410;28;19937;-70
2023/03/24 13:34:33;;;;;;;;;;;22.40;99.90;;;;;;5100391;28;20394;-70
2023/03/24 13:37:21;;;;;;;;;;;22.40;99.90;;;;;;5097174;28;19911;-71
2023/03/24 13:39:50;;;;;;;;;;;22.40;99.90;;;;;;5102838;28;20195;-69
2023/03/24 13:42:34;;;;;;;;;;;22.40;99.90;;;;;;5103295;28;19908;-69
2023/03/24 13:45:02;;;;;;;;;;;22.40;99.90;;;;;;5101262;28;19930;-68
2023/03/24 13:47:48;;;;;;;;;;;22.40;99.90;;;;;;5103834;28;19915;-69
2023/03/24 13:50:15;;;;;;;;;;;22.50;99.90;;;;;;5084348;28;20324;-69
2023/03/24 13:52:47;;;;;;;;;;;22.40;99.90;;;;;;5103709;28;20371;-68
2023/03/24 13:55:19;;;;;;;;;;;22.40;99.90;;;;;;5102664;28;19991;-69
2023/03/24 13:57:53;;;;;;;;;;;22.40;99.90;;;;;;5103941;28;20124;-69
2023/03/24 14:00:22;;;;;;;;;;;22.40;99.90;;;;;;5103560;28;20549;-68
2023/03/24 14:02:50;;;;;;;;;;;22.30;99.90;;;;;;5102997;28;19947;-70
2023/03/24 14:05:23;;;;;;;;;;;22.40;99.90;;;;;;5102248;28;20006;-70
2023/03/24 14:07:50;;;;;;;;;;;22.40;99.90;;;;;;5102379;28;19908;-69
2023/03/24 14:10:19;;;;;;;;;;;22.40;99.90;;;;;;5102228;28;20125;-69
2023/03/24 14:12:53;;;;;;;;;;;22.40;99.90;;;;;;5103378;28;20140;-68
2023/03/24 14:15:39;;;;;;;;;;;22.30;99.90;;;;;;5102687;28;19908;-68
2023/03/24 14:18:15;;;;;;;;;;;22.40;99.90;;;;;;5101034;28;19915;-68
2023/03/24 14:20:57;;;;;;;;;;;22.40;99.90;;;;;;5102898;28;19916;-68
2023/03/24 14:23:47;;;;;;;;;;;22.40;99.90;;;;;;5103014;28;19914;-69
2023/03/24 14:26:20;;;;;;;;;;;22.40;99.90;;;;;;5081720;28;20192;-70
2023/03/24 14:28:48;;;;;;;;;;;22.30;99.90;;;;;;5102875;28;19919;-69
2023/03/24 14:31:15;;;;;;;;;;;22.30;99.90;;;;;;5100527;28;20086;-69
2023/03/24 14:34:02;;;;;;;;;;;22.30;99.90;;;;;;5102957;28;19911;-69
2023/03/24 14:36:31;;;;;;;;;;;22.30;99.90;;;;;;5084799;28;20426;-69